Hovedside
METAR-TAF:

METAR-TAF

Lufthavner :

Potosí, Bolivia

breddegrad: 19-33S, lengdegrad: 065-44W, høyde over havet: 3935 m

Gjeldene værobservasjon

Denne rapporten ble laget for 11 timer og 20 minutter siden, klokken 17:00 UTC
Vind 10 kt fra Øst-nordøst
Temperatur 11°C
Luftfuktighet 76%
Trykk 1035 hPa
Sikt 10 km eller mer
Spredte skyer i en høyde av 1500 ft
Få skyer i en høyde av 2500 ft, Tårnskyer (cumulus).
Brutte skyer i en høyde av 7000 ft
Brutte skyer i en høyde av 20000 ft

METAR: SLPO 281700Z 06010KT 9999 SCT015 FEW025TCU BKN070 BKN200 11/07 Q1035

Tid: 00:20 (04:20 UTC)


TAF: fraværende

Værobservasjoner og værvarsel for over 4000 flyplasser (METAR- og TAF-rapporter).

Tilgjengelige stasjoner er representert av de røde og gule prikkene på kartet.

Hold musepekeren over prikken for å se navnet på stasjonen.

Klikk så for å se værobservasjoner og -varsler.

For å forandre kartet kan du klikke på den grønne knappen med svart kryss for å zoome inn, på den grønne knappen med strek for å zoome ut, eller på de grønne pilene for å se tilstøtende kart.


METAR-TAF: